sensor_id;sensor_type;location;lat;lon;timestamp;P1;durP1;ratioP1;P2;durP2;ratioP2
22388;SDS011;11362;48.102;11.620;2023-02-26T00:00:27;1.17;;;0.47;;
22388;SDS011;11362;48.102;11.620;2023-02-26T00:02:52;0.50;;;0.50;;
22388;SDS011;11362;48.102;11.620;2023-02-26T00:05:17;0.40;;;0.40;;
22388;SDS011;11362;48.102;11.620;2023-02-26T00:07:42;3.20;;;0.97;;
22388;SDS011;11362;48.102;11.620;2023-02-26T00:10:09;0.47;;;0.30;;
22388;SDS011;11362;48.102;11.620;2023-02-26T00:12:36;0.50;;;0.47;;
22388;SDS011;11362;48.102;11.620;2023-02-26T00:15:02;0.60;;;0.30;;
22388;SDS011;11362;48.102;11.620;2023-02-26T00:17:30;0.77;;;0.50;;
22388;SDS011;11362;48.102;11.620;2023-02-26T00:20:02;0.40;;;0.40;;
22388;SDS011;11362;48.102;11.620;2023-02-26T00:22:28;0.87;;;0.60;;
22388;SDS011;11362;48.102;11.620;2023-02-26T00:24:54;0.60;;;0.50;;
22388;SDS011;11362;48.102;11.620;2023-02-26T00:27:19;0.50;;;0.50;;
22388;SDS011;11362;48.102;11.620;2023-02-26T00:29:45;0.40;;;0.40;;
22388;SDS011;11362;48.102;11.620;2023-02-26T00:32:10;0.30;;;0.30;;
22388;SDS011;11362;48.102;11.620;2023-02-26T00:34:36;1.10;;;0.40;;
22388;SDS011;11362;48.102;11.620;2023-02-26T00:37:05;0.87;;;0.50;;
22388;SDS011;11362;48.102;11.620;2023-02-26T00:39:43;0.37;;;0.37;;
22388;SDS011;11362;48.102;11.620;2023-02-26T00:42:11;0.83;;;0.77;;
22388;SDS011;11362;48.102;11.620;2023-02-26T00:44:37;0.43;;;0.40;;
22388;SDS011;11362;48.102;11.620;2023-02-26T00:47:09;1.07;;;0.30;;
22388;SDS011;11362;48.102;11.620;2023-02-26T00:52:11;0.27;;;0.27;;
22388;SDS011;11362;48.102;11.620;2023-02-26T00:54:44;0.63;;;0.63;;
22388;SDS011;11362;48.102;11.620;2023-02-26T00:57:09;0.30;;;0.30;;
22388;SDS011;11362;48.102;11.620;2023-02-26T00:59:34;0.50;;;0.50;;
22388;SDS011;11362;48.102;11.620;2023-02-26T01:02:00;0.47;;;0.40;;
22388;SDS011;11362;48.102;11.620;2023-02-26T01:04:25;0.30;;;0.30;;
22388;SDS011;11362;48.102;11.620;2023-02-26T01:06:52;0.40;;;0.40;;
22388;SDS011;11362;48.102;11.620;2023-02-26T01:11:53;0.23;;;0.23;;
22388;SDS011;11362;48.102;11.620;2023-02-26T01:14:19;0.33;;;0.33;;
22388;SDS011;11362;48.102;11.620;2023-02-26T01:16:47;1.70;;;0.50;;
22388;SDS011;11362;48.102;11.620;2023-02-26T01:19:25;0.30;;;0.30;;
22388;SDS011;11362;48.102;11.620;2023-02-26T01:22:14;0.53;;;0.43;;
22388;SDS011;11362;48.102;11.620;2023-02-26T01:24:45;0.30;;;0.30;;
22388;SDS011;11362;48.102;11.620;2023-02-26T01:27:12;0.20;;;0.20;;
22388;SDS011;11362;48.102;11.620;2023-02-26T01:29:37;0.40;;;0.40;;
22388;SDS011;11362;48.102;11.620;2023-02-26T01:32:18;0.40;;;0.40;;
22388;SDS011;11362;48.102;11.620;2023-02-26T01:35:07;0.30;;;0.30;;
22388;SDS011;11362;48.102;11.620;2023-02-26T01:37:46;0.20;;;0.20;;
22388;SDS011;11362;48.102;11.620;2023-02-26T01:43:06;0.30;;;0.30;;
22388;SDS011;11362;48.102;11.620;2023-02-26T01:45:53;0.30;;;0.30;;
22388;SDS011;11362;48.102;11.620;2023-02-26T01:48:42;0.40;;;0.40;;
22388;SDS011;11362;48.102;11.620;2023-02-26T01:51:18;0.63;;;0.40;;
22388;SDS011;11362;48.102;11.620;2023-02-26T01:54:03;0.50;;;0.30;;
22388;SDS011;11362;48.102;11.620;2023-02-26T01:56:29;1.70;;;0.40;;
22388;SDS011;11362;48.102;11.620;2023-02-26T01:58:54;0.40;;;0.40;;
22388;SDS011;11362;48.102;11.620;2023-02-26T02:01:19;0.80;;;0.80;;
22388;SDS011;11362;48.102;11.620;2023-02-26T02:03:44;0.40;;;0.40;;
22388;SDS011;11362;48.102;11.620;2023-02-26T02:06:15;0.47;;;0.47;;
22388;SDS011;11362;48.102;11.620;2023-02-26T02:08:43;0.30;;;0.30;;
22388;SDS011;11362;48.102;11.620;2023-02-26T02:11:10;0.20;;;0.20;;
22388;SDS011;11362;48.102;11.620;2023-02-26T02:18:46;0.20;;;0.20;;
22388;SDS011;11362;48.102;11.620;2023-02-26T02:21:24;0.90;;;0.40;;
22388;SDS011;11362;48.102;11.620;2023-02-26T02:27:46;0.20;;;0.20;;
22388;SDS011;11362;48.102;11.620;2023-02-26T02:29:53;0.20;;;0.20;;
22388;SDS011;11362;48.102;11.620;2023-02-26T02:32:46;0.23;;;0.23;;
22388;SDS011;11362;48.102;11.620;2023-02-26T02:35:22;0.27;;;0.27;;
22388;SDS011;11362;48.102;11.620;2023-02-26T02:38:04;0.30;;;0.30;;
22388;SDS011;11362;48.102;11.620;2023-02-26T02:40:36;0.27;;;0.27;;
22388;SDS011;11362;48.102;11.620;2023-02-26T02:43:12;0.30;;;0.30;;
22388;SDS011;11362;48.102;11.620;2023-02-26T02:45:48;0.30;;;0.30;;
22388;SDS011;11362;48.102;11.620;2023-02-26T02:48:35;0.17;;;0.17;;
22388;SDS011;11362;48.102;11.620;2023-02-26T02:51:16;0.30;;;0.30;;
22388;SDS011;11362;48.102;11.620;2023-02-26T02:53:49;0.30;;;0.30;;
22388;SDS011;11362;48.102;11.620;2023-02-26T02:56:20;0.47;;;0.30;;
22388;SDS011;11362;48.102;11.620;2023-02-26T02:58:59;0.40;;;0.40;;
22388;SDS011;11362;48.102;11.620;2023-02-26T03:01:30;0.40;;;0.30;;
22388;SDS011;11362;48.102;11.620;2023-02-26T03:04:09;0.40;;;0.40;;
22388;SDS011;11362;48.102;11.620;2023-02-26T03:06:38;0.43;;;0.43;;
22388;SDS011;11362;48.102;11.620;2023-02-26T03:09:04;0.27;;;0.23;;
22388;SDS011;11362;48.102;11.620;2023-02-26T03:11:31;0.30;;;0.30;;
22388;SDS011;11362;48.102;11.620;2023-02-26T03:13:57;0.40;;;0.37;;
22388;SDS011;11362;48.102;11.620;2023-02-26T03:16:41;0.60;;;0.60;;
22388;SDS011;11362;48.102;11.620;2023-02-26T03:19:29;0.40;;;0.40;;
22388;SDS011;11362;48.102;11.620;2023-02-26T03:22:07;0.50;;;0.20;;
22388;SDS011;11362;48.102;11.620;2023-02-26T03:25:06;0.20;;;0.20;;
22388;SDS011;11362;48.102;11.620;2023-02-26T03:30:47;0.30;;;0.30;;
22388;SDS011;11362;48.102;11.620;2023-02-26T03:33:27;0.33;;;0.33;;
22388;SDS011;11362;48.102;11.620;2023-02-26T03:36:02;0.20;;;0.20;;
22388;SDS011;11362;48.102;11.620;2023-02-26T03:41:39;0.30;;;0.30;;
22388;SDS011;11362;48.102;11.620;2023-02-26T03:44:10;0.20;;;0.20;;
22388;SDS011;11362;48.102;11.620;2023-02-26T03:46:43;0.20;;;0.20;;
22388;SDS011;11362;48.102;11.620;2023-02-26T03:49:13;0.53;;;0.30;;
22388;SDS011;11362;48.102;11.620;2023-02-26T03:51:44;0.27;;;0.27;;
22388;SDS011;11362;48.102;11.620;2023-02-26T03:54:18;0.30;;;0.30;;
22388;SDS011;11362;48.102;11.620;2023-02-26T03:56:51;0.20;;;0.20;;
22388;SDS011;11362;48.102;11.620;2023-02-26T03:59:17;0.30;;;0.30;;
22388;SDS011;11362;48.102;11.620;2023-02-26T04:04:37;0.23;;;0.23;;
22388;SDS011;11362;48.102;11.620;2023-02-26T04:07:18;0.20;;;0.20;;
22388;SDS011;11362;48.102;11.620;2023-02-26T04:09:45;0.27;;;0.27;;
22388;SDS011;11362;48.102;11.620;2023-02-26T04:12:12;0.30;;;0.30;;
22388;SDS011;11362;48.102;11.620;2023-02-26T04:14:38;0.50;;;0.30;;
22388;SDS011;11362;48.102;11.620;2023-02-26T04:17:03;0.37;;;0.20;;
22388;SDS011;11362;48.102;11.620;2023-02-26T04:19:29;0.23;;;0.23;;
22388;SDS011;11362;48.102;11.620;2023-02-26T04:21:54;0.20;;;0.20;;
22388;SDS011;11362;48.102;11.620;2023-02-26T04:24:20;0.30;;;0.30;;
22388;SDS011;11362;48.102;11.620;2023-02-26T04:26:46;0.27;;;0.27;;
22388;SDS011;11362;48.102;11.620;2023-02-26T04:29:11;0.30;;;0.30;;
22388;SDS011;11362;48.102;11.620;2023-02-26T04:31:36;0.30;;;0.30;;
22388;SDS011;11362;48.102;11.620;2023-02-26T04:34:02;0.23;;;0.23;;
22388;SDS011;11362;48.102;11.620;2023-02-26T04:36:27;0.43;;;0.43;;
22388;SDS011;11362;48.102;11.620;2023-02-26T04:38:53;0.30;;;0.30;;
22388;SDS011;11362;48.102;11.620;2023-02-26T04:41:18;0.63;;;0.40;;
22388;SDS011;11362;48.102;11.620;2023-02-26T04:43:43;0.30;;;0.30;;
22388;SDS011;11362;48.102;11.620;2023-02-26T04:46:09;0.67;;;0.20;;
22388;SDS011;11362;48.102;11.620;2023-02-26T04:48:34;0.70;;;0.70;;
22388;SDS011;11362;48.102;11.620;2023-02-26T04:50:59;0.30;;;0.30;;
22388;SDS011;11362;48.102;11.620;2023-02-26T04:53:25;0.20;;;0.20;;
22388;SDS011;11362;48.102;11.620;2023-02-26T04:55:50;0.30;;;0.30;;
22388;SDS011;11362;48.102;11.620;2023-02-26T04:58:15;0.20;;;0.20;;
22388;SDS011;11362;48.102;11.620;2023-02-26T05:00:41;0.47;;;0.47;;
22388;SDS011;11362;48.102;11.620;2023-02-26T05:03:06;0.30;;;0.30;;
22388;SDS011;11362;48.102;11.620;2023-02-26T05:05:31;0.30;;;0.30;;
22388;SDS011;11362;48.102;11.620;2023-02-26T05:07:57;0.27;;;0.27;;
22388;SDS011;11362;48.102;11.620;2023-02-26T05:10:23;0.30;;;0.30;;
22388;SDS011;11362;48.102;11.620;2023-02-26T05:12:50;0.50;;;0.50;;
22388;SDS011;11362;48.102;11.620;2023-02-26T05:15:16;0.30;;;0.30;;
22388;SDS011;11362;48.102;11.620;2023-02-26T05:17:41;1.27;;;0.67;;
22388;SDS011;11362;48.102;11.620;2023-02-26T05:20:06;0.27;;;0.27;;
22388;SDS011;11362;48.102;11.620;2023-02-26T05:22:32;0.20;;;0.20;;
22388;SDS011;11362;48.102;11.620;2023-02-26T05:24:58;0.43;;;0.40;;
22388;SDS011;11362;48.102;11.620;2023-02-26T05:27:23;0.37;;;0.37;;
22388;SDS011;11362;48.102;11.620;2023-02-26T05:29:48;0.90;;;0.43;;
22388;SDS011;11362;48.102;11.620;2023-02-26T05:32:13;0.20;;;0.20;;
22388;SDS011;11362;48.102;11.620;2023-02-26T05:34:39;0.33;;;0.33;;
22388;SDS011;11362;48.102;11.620;2023-02-26T05:37:04;0.30;;;0.30;;
22388;SDS011;11362;48.102;11.620;2023-02-26T05:39:30;0.47;;;0.47;;
22388;SDS011;11362;48.102;11.620;2023-02-26T05:41:55;0.80;;;0.40;;
22388;SDS011;11362;48.102;11.620;2023-02-26T05:44:21;1.40;;;0.30;;
22388;SDS011;11362;48.102;11.620;2023-02-26T05:46:46;0.30;;;0.30;;
22388;SDS011;11362;48.102;11.620;2023-02-26T05:49:12;0.30;;;0.30;;
22388;SDS011;11362;48.102;11.620;2023-02-26T05:51:37;0.50;;;0.50;;
22388;SDS011;11362;48.102;11.620;2023-02-26T05:54:02;0.63;;;0.20;;
22388;SDS011;11362;48.102;11.620;2023-02-26T05:56:28;0.20;;;0.20;;
22388;SDS011;11362;48.102;11.620;2023-02-26T05:58:53;0.20;;;0.20;;
22388;SDS011;11362;48.102;11.620;2023-02-26T06:01:19;0.43;;;0.40;;
22388;SDS011;11362;48.102;11.620;2023-02-26T06:03:44;0.63;;;0.40;;
22388;SDS011;11362;48.102;11.620;2023-02-26T06:06:10;0.40;;;0.40;;
22388;SDS011;11362;48.102;11.620;2023-02-26T06:08:36;0.37;;;0.37;;
22388;SDS011;11362;48.102;11.620;2023-02-26T06:11:01;0.83;;;0.20;;
22388;SDS011;11362;48.102;11.620;2023-02-26T06:13:26;1.63;;;0.63;;
22388;SDS011;11362;48.102;11.620;2023-02-26T06:15:52;1.90;;;0.60;;
22388;SDS011;11362;48.102;11.620;2023-02-26T06:18:17;5.23;;;1.33;;
22388;SDS011;11362;48.102;11.620;2023-02-26T06:20:42;9.70;;;1.27;;
22388;SDS011;11362;48.102;11.620;2023-02-26T06:23:07;10.20;;;1.90;;
22388;SDS011;11362;48.102;11.620;2023-02-26T06:25:33;8.07;;;1.40;;
22388;SDS011;11362;48.102;11.620;2023-02-26T06:27:58;8.83;;;1.70;;
22388;SDS011;11362;48.102;11.620;2023-02-26T06:30:23;3.03;;;1.23;;
22388;SDS011;11362;48.102;11.620;2023-02-26T06:32:49;9.17;;;1.63;;
22388;SDS011;11362;48.102;11.620;2023-02-26T06:35:14;5.90;;;1.30;;
22388;SDS011;11362;48.102;11.620;2023-02-26T06:37:39;9.93;;;1.60;;
22388;SDS011;11362;48.102;11.620;2023-02-26T06:40:05;7.63;;;1.40;;
22388;SDS011;11362;48.102;11.620;2023-02-26T06:42:31;6.30;;;1.43;;
22388;SDS011;11362;48.102;11.620;2023-02-26T06:44:56;5.43;;;1.53;;
22388;SDS011;11362;48.102;11.620;2023-02-26T06:47:22;7.67;;;2.33;;
22388;SDS011;11362;48.102;11.620;2023-02-26T06:49:47;10.23;;;1.37;;
22388;SDS011;11362;48.102;11.620;2023-02-26T06:52:13;6.67;;;1.77;;
22388;SDS011;11362;48.102;11.620;2023-02-26T06:54:38;14.73;;;2.07;;
22388;SDS011;11362;48.102;11.620;2023-02-26T06:57:04;16.93;;;1.83;;
22388;SDS011;11362;48.102;11.620;2023-02-26T06:59:29;10.27;;;1.83;;
22388;SDS011;11362;48.102;11.620;2023-02-26T07:01:54;7.03;;;2.33;;
22388;SDS011;11362;48.102;11.620;2023-02-26T07:04:20;13.50;;;1.63;;
22388;SDS011;11362;48.102;11.620;2023-02-26T07:06:45;8.40;;;1.80;;
22388;SDS011;11362;48.102;11.620;2023-02-26T07:09:10;9.97;;;1.57;;
22388;SDS011;11362;48.102;11.620;2023-02-26T07:11:36;9.07;;;1.97;;
22388;SDS011;11362;48.102;11.620;2023-02-26T07:14:01;9.67;;;1.50;;
22388;SDS011;11362;48.102;11.620;2023-02-26T07:16:26;7.57;;;1.80;;
22388;SDS011;11362;48.102;11.620;2023-02-26T07:18:51;12.93;;;2.17;;
22388;SDS011;11362;48.102;11.620;2023-02-26T07:21:17;14.57;;;1.93;;
22388;SDS011;11362;48.102;11.620;2023-02-26T07:23:42;17.40;;;2.00;;
22388;SDS011;11362;48.102;11.620;2023-02-26T07:26:07;14.03;;;2.20;;
22388;SDS011;11362;48.102;11.620;2023-02-26T07:28:33;8.57;;;2.20;;
22388;SDS011;11362;48.102;11.620;2023-02-26T07:30:58;14.27;;;2.00;;
22388;SDS011;11362;48.102;11.620;2023-02-26T07:33:24;14.43;;;2.00;;
22388;SDS011;11362;48.102;11.620;2023-02-26T07:35:50;11.80;;;2.40;;
22388;SDS011;11362;48.102;11.620;2023-02-26T07:38:16;8.13;;;2.50;;
22388;SDS011;11362;48.102;11.620;2023-02-26T07:40:41;12.60;;;2.83;;
22388;SDS011;11362;48.102;11.620;2023-02-26T07:43:06;19.07;;;3.20;;
22388;SDS011;11362;48.102;11.620;2023-02-26T07:45:31;16.10;;;3.47;;
22388;SDS011;11362;48.102;11.620;2023-02-26T07:47:57;17.03;;;2.70;;
22388;SDS011;11362;48.102;11.620;2023-02-26T07:50:22;13.40;;;3.87;;
22388;SDS011;11362;48.102;11.620;2023-02-26T07:52:47;14.73;;;3.50;;
22388;SDS011;11362;48.102;11.620;2023-02-26T07:55:13;18.17;;;4.70;;
22388;SDS011;11362;48.102;11.620;2023-02-26T07:57:38;18.17;;;3.10;;
22388;SDS011;11362;48.102;11.620;2023-02-26T08:00:04;16.60;;;3.80;;
22388;SDS011;11362;48.102;11.620;2023-02-26T08:02:30;19.53;;;4.17;;
22388;SDS011;11362;48.102;11.620;2023-02-26T08:04:55;14.87;;;3.17;;
22388;SDS011;11362;48.102;11.620;2023-02-26T08:07:21;20.60;;;4.23;;
22388;SDS011;11362;48.102;11.620;2023-02-26T08:09:46;13.40;;;2.70;;
22388;SDS011;11362;48.102;11.620;2023-02-26T08:12:11;16.73;;;3.40;;
22388;SDS011;11362;48.102;11.620;2023-02-26T08:14:37;11.43;;;2.77;;
22388;SDS011;11362;48.102;11.620;2023-02-26T08:17:02;17.60;;;2.83;;
22388;SDS011;11362;48.102;11.620;2023-02-26T08:19:27;18.13;;;3.20;;
22388;SDS011;11362;48.102;11.620;2023-02-26T08:21:53;8.73;;;2.83;;
22388;SDS011;11362;48.102;11.620;2023-02-26T08:24:18;18.83;;;3.10;;
22388;SDS011;11362;48.102;11.620;2023-02-26T08:26:43;14.13;;;2.67;;
22388;SDS011;11362;48.102;11.620;2023-02-26T08:29:09;9.40;;;2.27;;
22388;SDS011;11362;48.102;11.620;2023-02-26T08:31:34;17.63;;;2.47;;
22388;SDS011;11362;48.102;11.620;2023-02-26T08:33:59;10.00;;;2.03;;
22388;SDS011;11362;48.102;11.620;2023-02-26T08:36:24;10.07;;;2.13;;
22388;SDS011;11362;48.102;11.620;2023-02-26T08:38:50;13.87;;;2.23;;
22388;SDS011;11362;48.102;11.620;2023-02-26T08:41:15;9.63;;;2.10;;
22388;SDS011;11362;48.102;11.620;2023-02-26T08:43:40;9.43;;;1.80;;
22388;SDS011;11362;48.102;11.620;2023-02-26T08:46:06;22.90;;;2.93;;
22388;SDS011;11362;48.102;11.620;2023-02-26T08:48:31;6.90;;;2.40;;
22388;SDS011;11362;48.102;11.620;2023-02-26T08:50:56;8.13;;;2.00;;
22388;SDS011;11362;48.102;11.620;2023-02-26T08:53:22;6.43;;;2.43;;
22388;SDS011;11362;48.102;11.620;2023-02-26T08:55:48;18.77;;;3.87;;
22388;SDS011;11362;48.102;11.620;2023-02-26T08:58:14;20.07;;;5.13;;
22388;SDS011;11362;48.102;11.620;2023-02-26T09:00:39;16.57;;;4.27;;
22388;SDS011;11362;48.102;11.620;2023-02-26T09:03:05;20.57;;;4.77;;
22388;SDS011;11362;48.102;11.620;2023-02-26T09:05:30;13.40;;;4.33;;
22388;SDS011;11362;48.102;11.620;2023-02-26T09:07:55;16.80;;;4.37;;
22388;SDS011;11362;48.102;11.620;2023-02-26T09:10:20;11.73;;;4.00;;
22388;SDS011;11362;48.102;11.620;2023-02-26T09:12:46;20.77;;;5.20;;
22388;SDS011;11362;48.102;11.620;2023-02-26T09:15:11;15.97;;;4.10;;
22388;SDS011;11362;48.102;11.620;2023-02-26T09:17:37;23.00;;;4.80;;
22388;SDS011;11362;48.102;11.620;2023-02-26T09:20:03;17.03;;;4.70;;
22388;SDS011;11362;48.102;11.620;2023-02-26T09:22:29;12.67;;;3.93;;
22388;SDS011;11362;48.102;11.620;2023-02-26T09:24:54;14.60;;;4.33;;
22388;SDS011;11362;48.102;11.620;2023-02-26T09:27:20;11.13;;;3.53;;
22388;SDS011;11362;48.102;11.620;2023-02-26T09:29:45;10.93;;;3.73;;
22388;SDS011;11362;48.102;11.620;2023-02-26T09:32:10;13.67;;;3.43;;
22388;SDS011;11362;48.102;11.620;2023-02-26T09:34:36;6.20;;;2.90;;
22388;SDS011;11362;48.102;11.620;2023-02-26T09:37:03;12.40;;;3.03;;
22388;SDS011;11362;48.102;11.620;2023-02-26T09:39:29;14.70;;;4.17;;
22388;SDS011;11362;48.102;11.620;2023-02-26T09:41:55;10.53;;;3.40;;
22388;SDS011;11362;48.102;11.620;2023-02-26T09:44:24;10.90;;;2.60;;
22388;SDS011;11362;48.102;11.620;2023-02-26T09:52:22;5.63;;;2.30;;
22388;SDS011;11362;48.102;11.620;2023-02-26T09:54:55;8.90;;;2.77;;
22388;SDS011;11362;48.102;11.620;2023-02-26T09:57:28;7.30;;;2.83;;
22388;SDS011;11362;48.102;11.620;2023-02-26T09:59:56;5.63;;;2.43;;
22388;SDS011;11362;48.102;11.620;2023-02-26T10:02:24;7.30;;;2.70;;
22388;SDS011;11362;48.102;11.620;2023-02-26T10:05:19;7.33;;;2.83;;
22388;SDS011;11362;48.102;11.620;2023-02-26T10:08:02;4.83;;;2.47;;
22388;SDS011;11362;48.102;11.620;2023-02-26T10:10:47;6.67;;;2.53;;
22388;SDS011;11362;48.102;11.620;2023-02-26T10:13:21;5.83;;;2.17;;
22388;SDS011;11362;48.102;11.620;2023-02-26T10:15:52;7.53;;;2.27;;
22388;SDS011;11362;48.102;11.620;2023-02-26T10:18:26;6.00;;;2.50;;
22388;SDS011;11362;48.102;11.620;2023-02-26T10:21:02;4.73;;;1.77;;
22388;SDS011;11362;48.102;11.620;2023-02-26T10:23:37;3.00;;;2.00;;
22388;SDS011;11362;48.102;11.620;2023-02-26T10:28:53;7.00;;;2.70;;
22388;SDS011;11362;48.102;11.620;2023-02-26T10:34:01;8.33;;;1.80;;
22388;SDS011;11362;48.102;11.620;2023-02-26T10:36:49;3.57;;;1.90;;
22388;SDS011;11362;48.102;11.620;2023-02-26T10:39:47;4.37;;;2.10;;
22388;SDS011;11362;48.102;11.620;2023-02-26T10:42:28;6.00;;;1.97;;
22388;SDS011;11362;48.102;11.620;2023-02-26T10:50:28;5.00;;;1.77;;
22388;SDS011;11362;48.102;11.620;2023-02-26T10:52:53;3.70;;;1.80;;
22388;SDS011;11362;48.102;11.620;2023-02-26T11:00:28;5.37;;;2.10;;
22388;SDS011;11362;48.102;11.620;2023-02-26T11:02:54;5.50;;;1.87;;
22388;SDS011;11362;48.102;11.620;2023-02-26T11:05:25;8.50;;;1.80;;
22388;SDS011;11362;48.102;11.620;2023-02-26T11:07:56;6.13;;;1.97;;
22388;SDS011;11362;48.102;11.620;2023-02-26T11:10:27;3.00;;;1.53;;
22388;SDS011;11362;48.102;11.620;2023-02-26T11:13:02;7.70;;;2.33;;
22388;SDS011;11362;48.102;11.620;2023-02-26T11:15:28;6.00;;;1.83;;
22388;SDS011;11362;48.102;11.620;2023-02-26T11:17:55;4.13;;;1.77;;
22388;SDS011;11362;48.102;11.620;2023-02-26T11:20:28;13.13;;;2.00;;
22388;SDS011;11362;48.102;11.620;2023-02-26T11:22:58;5.77;;;2.00;;
22388;SDS011;11362;48.102;11.620;2023-02-26T11:25:27;9.13;;;1.93;;
22388;SDS011;11362;48.102;11.620;2023-02-26T11:28:18;5.73;;;1.80;;
22388;SDS011;11362;48.102;11.620;2023-02-26T11:30:45;5.10;;;2.00;;
22388;SDS011;11362;48.102;11.620;2023-02-26T11:33:15;4.20;;;1.70;;
22388;SDS011;11362;48.102;11.620;2023-02-26T11:36:02;8.80;;;2.20;;
22388;SDS011;11362;48.102;11.620;2023-02-26T11:38:33;7.97;;;2.33;;
22388;SDS011;11362;48.102;11.620;2023-02-26T11:40:59;8.77;;;2.73;;
22388;SDS011;11362;48.102;11.620;2023-02-26T11:43:31;5.77;;;2.03;;
22388;SDS011;11362;48.102;11.620;2023-02-26T11:46:03;9.53;;;2.03;;
22388;SDS011;11362;48.102;11.620;2023-02-26T11:51:04;6.83;;;1.83;;
22388;SDS011;11362;48.102;11.620;2023-02-26T11:56:01;4.83;;;1.60;;
22388;SDS011;11362;48.102;11.620;2023-02-26T11:58:29;7.30;;;2.00;;
22388;SDS011;11362;48.102;11.620;2023-02-26T12:00:59;9.87;;;1.77;;
22388;SDS011;11362;48.102;11.620;2023-02-26T12:03:26;6.47;;;2.00;;
22388;SDS011;11362;48.102;11.620;2023-02-26T12:05:56;9.43;;;1.90;;
22388;SDS011;11362;48.102;11.620;2023-02-26T12:08:24;11.60;;;1.87;;
22388;SDS011;11362;48.102;11.620;2023-02-26T12:11:00;16.33;;;2.53;;
22388;SDS011;11362;48.102;11.620;2023-02-26T12:19:41;10.70;;;2.60;;
22388;SDS011;11362;48.102;11.620;2023-02-26T12:22:36;24.07;;;3.43;;
22388;SDS011;11362;48.102;11.620;2023-02-26T12:36:16;18.43;;;3.13;;
22388;SDS011;11362;48.102;11.620;2023-02-26T12:52:57;12.00;;;1.83;;
22388;SDS011;11362;48.102;11.620;2023-02-26T12:58:08;15.57;;;3.37;;
22388;SDS011;11362;48.102;11.620;2023-02-26T13:09:15;10.00;;;2.33;;
22388;SDS011;11362;48.102;11.620;2023-02-26T13:20:27;24.33;;;3.97;;
22388;SDS011;11362;48.102;11.620;2023-02-26T13:23:00;11.40;;;2.53;;
22388;SDS011;11362;48.102;11.620;2023-02-26T13:28:29;10.60;;;2.80;;
22388;SDS011;11362;48.102;11.620;2023-02-26T13:31:00;19.60;;;3.30;;
22388;SDS011;11362;48.102;11.620;2023-02-26T13:33:30;26.80;;;3.90;;
22388;SDS011;11362;48.102;11.620;2023-02-26T13:35:58;26.80;;;4.40;;
22388;SDS011;11362;48.102;11.620;2023-02-26T13:41:04;26.00;;;4.60;;
22388;SDS011;11362;48.102;11.620;2023-02-26T13:43:46;27.33;;;5.43;;
22388;SDS011;11362;48.102;11.620;2023-02-26T13:49:29;35.43;;;5.40;;
22388;SDS011;11362;48.102;11.620;2023-02-26T13:51:55;30.40;;;3.73;;
22388;SDS011;11362;48.102;11.620;2023-02-26T14:06:42;25.40;;;4.17;;
22388;SDS011;11362;48.102;11.620;2023-02-26T14:24:56;32.13;;;12.70;;
22388;SDS011;11362;48.102;11.620;2023-02-26T14:27:29;37.30;;;15.00;;
22388;SDS011;11362;48.102;11.620;2023-02-26T14:29:58;25.73;;;11.23;;
22388;SDS011;11362;48.102;11.620;2023-02-26T14:32:34;39.43;;;11.53;;
22388;SDS011;11362;48.102;11.620;2023-02-26T14:35:14;45.93;;;10.57;;
22388;SDS011;11362;48.102;11.620;2023-02-26T14:38:33;39.17;;;9.60;;
22388;SDS011;11362;48.102;11.620;2023-02-26T14:40:50;34.43;;;9.00;;
22388;SDS011;11362;48.102;11.620;2023-02-26T14:43:41;31.53;;;8.50;;
22388;SDS011;11362;48.102;11.620;2023-02-26T14:46:07;31.33;;;8.27;;
22388;SDS011;11362;48.102;11.620;2023-02-26T14:48:34;27.13;;;7.63;;
22388;SDS011;11362;48.102;11.620;2023-02-26T15:07:35;32.87;;;6.33;;
22388;SDS011;11362;48.102;11.620;2023-02-26T15:13:23;18.97;;;5.97;;
22388;SDS011;11362;48.102;11.620;2023-02-26T15:18:58;28.77;;;6.07;;
22388;SDS011;11362;48.102;11.620;2023-02-26T15:21:58;27.90;;;5.73;;
22388;SDS011;11362;48.102;11.620;2023-02-26T15:24:37;29.00;;;5.97;;
22388;SDS011;11362;48.102;11.620;2023-02-26T15:27:04;32.23;;;6.17;;
22388;SDS011;11362;48.102;11.620;2023-02-26T15:29:33;19.47;;;5.00;;
22388;SDS011;11362;48.102;11.620;2023-02-26T15:32:06;27.53;;;5.97;;
22388;SDS011;11362;48.102;11.620;2023-02-26T15:34:45;25.80;;;5.40;;
22388;SDS011;11362;48.102;11.620;2023-02-26T15:37:20;22.63;;;5.07;;
22388;SDS011;11362;48.102;11.620;2023-02-26T15:39:47;24.60;;;4.47;;
22388;SDS011;11362;48.102;11.620;2023-02-26T15:42:14;19.63;;;4.77;;
22388;SDS011;11362;48.102;11.620;2023-02-26T15:44:40;13.17;;;4.83;;
22388;SDS011;11362;48.102;11.620;2023-02-26T15:47:05;19.23;;;4.67;;
22388;SDS011;11362;48.102;11.620;2023-02-26T15:49:38;12.00;;;4.03;;
22388;SDS011;11362;48.102;11.620;2023-02-26T15:52:07;14.37;;;4.43;;
22388;SDS011;11362;48.102;11.620;2023-02-26T15:54:40;17.57;;;4.17;;
22388;SDS011;11362;48.102;11.620;2023-02-26T15:57:07;16.17;;;3.83;;
22388;SDS011;11362;48.102;11.620;2023-02-26T15:59:34;10.10;;;3.73;;
22388;SDS011;11362;48.102;11.620;2023-02-26T16:02:07;14.10;;;3.60;;
22388;SDS011;11362;48.102;11.620;2023-02-26T16:04:36;13.63;;;3.30;;
22388;SDS011;11362;48.102;11.620;2023-02-26T16:07:01;12.83;;;3.30;;
22388;SDS011;11362;48.102;11.620;2023-02-26T16:09:28;10.83;;;3.53;;
22388;SDS011;11362;48.102;11.620;2023-02-26T16:11:56;10.20;;;3.47;;
22388;SDS011;11362;48.102;11.620;2023-02-26T16:14:28;12.80;;;4.37;;
22388;SDS011;11362;48.102;11.620;2023-02-26T16:16:57;20.93;;;4.13;;
22388;SDS011;11362;48.102;11.620;2023-02-26T16:19:37;18.17;;;4.20;;
22388;SDS011;11362;48.102;11.620;2023-02-26T16:22:25;34.43;;;6.07;;
22388;SDS011;11362;48.102;11.620;2023-02-26T16:24:59;28.40;;;9.13;;
22388;SDS011;11362;48.102;11.620;2023-02-26T16:27:46;29.23;;;11.00;;
22388;SDS011;11362;48.102;11.620;2023-02-26T16:30:19;44.93;;;13.67;;
22388;SDS011;11362;48.102;11.620;2023-02-26T16:32:51;40.80;;;15.67;;
22388;SDS011;11362;48.102;11.620;2023-02-26T16:35:19;46.20;;;14.87;;
22388;SDS011;11362;48.102;11.620;2023-02-26T16:37:46;51.20;;;14.57;;
22388;SDS011;11362;48.102;11.620;2023-02-26T16:42:51;65.47;;;9.63;;
22388;SDS011;11362;48.102;11.620;2023-02-26T16:47:49;43.73;;;8.93;;
22388;SDS011;11362;48.102;11.620;2023-02-26T16:50:19;23.77;;;5.60;;
22388;SDS011;11362;48.102;11.620;2023-02-26T16:53:07;27.27;;;7.20;;
22388;SDS011;11362;48.102;11.620;2023-02-26T16:55:37;30.10;;;6.80;;
22388;SDS011;11362;48.102;11.620;2023-02-26T16:58:04;27.40;;;6.27;;
22388;SDS011;11362;48.102;11.620;2023-02-26T17:00:32;34.57;;;6.00;;
22388;SDS011;11362;48.102;11.620;2023-02-26T17:03:01;30.17;;;5.17;;
22388;SDS011;11362;48.102;11.620;2023-02-26T17:05:40;30.20;;;5.93;;
22388;SDS011;11362;48.102;11.620;2023-02-26T17:13:18;35.77;;;5.87;;
22388;SDS011;11362;48.102;11.620;2023-02-26T17:15:49;35.67;;;6.57;;
22388;SDS011;11362;48.102;11.620;2023-02-26T17:18:14;31.43;;;5.80;;
22388;SDS011;11362;48.102;11.620;2023-02-26T17:20:40;31.97;;;5.47;;
22388;SDS011;11362;48.102;11.620;2023-02-26T17:23:06;43.17;;;6.47;;
22388;SDS011;11362;48.102;11.620;2023-02-26T17:25:37;27.03;;;5.37;;
22388;SDS011;11362;48.102;11.620;2023-02-26T17:28:05;58.30;;;7.90;;
22388;SDS011;11362;48.102;11.620;2023-02-26T17:30:31;51.90;;;8.73;;
22388;SDS011;11362;48.102;11.620;2023-02-26T17:32:57;42.47;;;7.33;;
22388;SDS011;11362;48.102;11.620;2023-02-26T17:35:24;48.93;;;7.90;;